RJFC(METAR)
04/24 09:00
RJFC 240000Z 19009KT 9999 FEW005 SCT010 BKN020 24/24 Q1009 RMK
A2981=
戻る
トップページへ戻る
IMOC Co,.Ltd.